Time;durP1;ratioP1;P1;durP2;ratioP2;P2;SDS_P1;SDS_P2;PMS_P1;PMS_P2;Temp;Humidity;BMP_temperature;BMP_pressure;BME280_temperature;BME280_humidity;BME280_pressure;Samples;Min_cycle;Max_cycle;Signal;HPM_P1;HPM_P2
2023/02/15 00:00:40;;;;;;;98.45;44.15;;;;;;;1.57;92.59;103158.13;6099142;19;20011;-74
2023/02/15 00:02:45;;;;;;;101.15;44.50;;;;;;;1.54;92.83;103148.53;6101007;19;20021;-75
2023/02/15 00:04:51;;;;;;;92.60;40.15;;;;;;;1.49;91.52;103140.59;6102857;19;20019;-75
2023/02/15 00:06:56;;;;;;;85.60;40.67;;;;;;;1.61;92.12;103140.16;6093441;19;20006;-74
2023/02/15 00:09:02;;;;;;;96.07;43.15;;;;;;;1.59;92.46;103136.63;6093178;19;20475;-74
2023/02/15 00:11:09;;;;;;;102.82;43.88;;;;;;;1.51;92.69;103130.31;6100860;19;20037;-74
2023/02/15 00:13:16;;;;;;;106.30;45.50;;;;;;;1.48;93.31;103130.22;6100028;19;20077;-74
2023/02/15 00:15:22;;;;;;;92.63;40.80;;;;;;;1.46;92.57;103131.84;6100964;19;20020;-75
2023/02/15 00:17:30;;;;;;;103.63;43.80;;;;;;;1.43;93.18;103129.16;6100514;19;20023;-74
2023/02/15 00:19:35;;;;;;;107.13;42.28;;;;;;;1.38;92.90;103122.94;6099348;19;20026;-74
2023/02/15 00:21:42;;;;;;;96.00;38.88;;;;;;;1.32;92.11;103126.22;6100462;19;20058;-74
2023/02/15 00:23:47;;;;;;;112.75;44.38;;;;;;;1.34;92.67;103127.13;6100058;19;20002;-74
2023/02/15 00:25:52;;;;;;;89.80;40.95;;;;;;;1.28;92.62;103116.56;6100781;19;20605;-74
2023/02/15 00:27:59;;;;;;;84.13;37.13;;;;;;;1.24;92.19;103120.78;6100986;19;20010;-74
2023/02/15 00:30:10;;;;;;;84.88;38.90;;;;;;;1.18;92.06;103115.34;6076281;19;20021;-76
2023/02/15 00:32:16;;;;;;;84.88;39.05;;;;;;;1.18;91.84;103117.06;6098814;19;20341;-74
2023/02/15 00:34:24;;;;;;;89.22;38.58;;;;;;;1.24;92.32;103115.59;6096690;19;20011;-75
2023/02/15 00:36:29;;;;;;;92.20;38.72;;;;;;;1.30;92.22;103113.19;6078448;19;20051;-76
2023/02/15 00:38:34;;;;;;;101.95;41.25;;;;;;;1.26;92.30;103113.03;6103128;19;20523;-75
2023/02/15 00:40:39;;;;;;;96.05;41.15;;;;;;;1.22;91.90;103106.88;6100182;19;20458;-74
2023/02/15 00:42:44;;;;;;;88.43;39.65;;;;;;;1.23;92.28;103111.22;6102395;19;20337;-75
2023/02/15 00:44:53;;;;;;;83.95;36.70;;;;;;;1.21;92.43;103101.63;6103018;19;20609;-75
2023/02/15 00:47:00;;;;;;;89.05;39.40;;;;;;;1.19;92.29;103117.13;6102651;19;20007;-75
2023/02/15 00:49:06;;;;;;;81.78;35.20;;;;;;;1.14;92.49;103110.91;6096302;19;20046;-75
2023/02/15 00:51:11;;;;;;;94.38;41.03;;;;;;;1.18;94.06;103115.34;6104071;19;20049;-75
2023/02/15 00:53:16;;;;;;;86.35;37.63;;;;;;;1.09;92.98;103118.50;6098273;19;20028;-75
2023/02/15 00:55:21;;;;;;;97.93;41.08;;;;;;;1.08;93.67;103118.47;6101520;19;20023;-76
2023/02/15 00:57:26;;;;;;;77.80;37.47;;;;;;;1.04;92.77;103114.88;6102541;19;20040;-75
2023/02/15 00:59:31;;;;;;;84.43;39.83;;;;;;;1.06;93.35;103113.22;6103616;19;20014;-74
2023/02/15 01:01:36;;;;;;;93.00;41.60;;;;;;;1.04;92.80;103104.53;6097530;19;20013;-74
2023/02/15 01:03:44;;;;;;;87.93;39.15;;;;;;;1.08;93.15;103097.75;6100827;19;20041;-74
2023/02/15 01:05:51;;;;;;;89.88;38.22;;;;;;;1.08;93.04;103100.34;6079852;19;20374;-74
2023/02/15 01:07:56;;;;;;;89.07;36.92;;;;;;;1.09;92.78;103107.28;6080056;19;20082;-74
2023/02/15 01:10:01;;;;;;;88.57;37.65;;;;;;;1.09;93.02;103096.94;6074087;19;20086;-74
2023/02/15 01:12:06;;;;;;;83.70;38.33;;;;;;;1.08;93.37;103092.59;6079576;19;20019;-73
2023/02/15 01:14:14;;;;;;;89.20;38.20;;;;;;;1.04;92.88;103099.34;6079048;19;20010;-75
2023/02/15 01:16:22;;;;;;;88.38;36.88;;;;;;;1.01;92.83;103094.06;6100969;19;20342;-74
2023/02/15 01:18:27;;;;;;;78.45;37.60;;;;;;;0.97;93.38;103097.34;6097600;19;20010;-75
2023/02/15 01:20:41;;;;;;;72.70;35.83;;;;;;;0.94;92.92;103098.97;6102880;19;20013;-75
2023/02/15 01:22:49;;;;;;;97.22;39.92;;;;;;;0.90;93.09;103094.53;6094267;19;21526;-75
2023/02/15 01:24:54;;;;;;;92.53;37.13;;;;;;;0.88;92.70;103087.56;6098059;19;20042;-73
2023/02/15 01:26:59;;;;;;;79.15;36.40;;;;;;;0.88;93.14;103086.69;6095968;19;20598;-74
2023/02/15 01:29:04;;;;;;;86.82;36.53;;;;;;;0.86;92.89;103084.03;6094024;19;20035;-74
2023/02/15 01:31:14;;;;;;;87.03;36.60;;;;;;;0.91;93.25;103085.91;6099526;19;20061;-75
2023/02/15 01:33:20;;;;;;;77.90;33.25;;;;;;;0.90;93.42;103089.34;6099769;19;20018;-74
2023/02/15 01:35:25;;;;;;;83.05;38.60;;;;;;;0.87;93.47;103085.81;6099761;19;20007;-74
2023/02/15 01:37:33;;;;;;;77.68;38.55;;;;;;;0.83;93.54;103086.53;6100254;19;20006;-74
2023/02/15 01:39:38;;;;;;;88.85;39.08;;;;;;;0.77;93.27;103078.53;6099309;19;20066;-74
2023/02/15 01:41:43;;;;;;;78.88;36.70;;;;;;;0.79;93.77;103073.41;6098222;19;20566;-75
2023/02/15 01:43:50;;;;;;;90.30;40.05;;;;;;;0.79;93.86;103074.31;6099234;19;20363;-75
2023/02/15 01:45:55;;;;;;;88.72;37.70;;;;;;;0.79;94.14;103068.22;6099093;19;20060;-75
2023/02/15 01:48:06;;;;;;;74.78;35.00;;;;;;;0.78;94.36;103064.75;6099686;19;20134;-74
2023/02/15 01:50:15;;;;;;;89.78;38.88;;;;;;;0.77;94.53;103062.16;6100763;19;20010;-76
2023/02/15 01:52:21;;;;;;;86.78;39.95;;;;;;;0.75;94.18;103058.63;6099574;19;20011;-74
2023/02/15 01:54:32;;;;;;;91.35;39.63;;;;;;;0.78;94.22;103056.13;6098955;19;20020;-75
2023/02/15 01:56:41;;;;;;;84.05;36.28;;;;;;;0.77;94.12;103056.97;6100577;19;20694;-74
2023/02/15 01:58:49;;;;;;;85.57;36.88;;;;;;;0.75;94.18;103054.31;6100750;19;20011;-75
2023/02/15 02:00:54;;;;;;;89.57;36.78;;;;;;;0.74;93.70;103059.41;6102707;19;20018;-73
2023/02/15 02:03:00;;;;;;;72.97;33.75;;;;;;;0.72;93.30;103059.38;6098885;19;20014;-75
2023/02/15 02:05:08;;;;;;;76.05;34.50;;;;;;;0.69;93.39;103051.53;6097519;19;20118;-73
2023/02/15 02:07:17;;;;;;;81.20;38.42;;;;;;;0.70;93.92;103049.81;6098162;19;20317;-74
2023/02/15 02:09:22;;;;;;;86.50;36.20;;;;;;;0.69;93.94;103046.34;6096630;19;20402;-75
2023/02/15 02:11:29;;;;;;;92.05;36.97;;;;;;;0.70;94.57;103053.25;6098509;19;20026;-74
2023/02/15 02:13:35;;;;;;;97.65;39.88;;;;;;;0.74;94.96;103047.38;6097457;19;20024;-74
2023/02/15 02:15:45;;;;;;;76.78;32.90;;;;;;;0.70;95.13;103037.75;6099008;19;20482;-75
2023/02/15 02:18:04;;;;;;;77.93;35.13;;;;;;;0.70;94.70;103044.63;6096133;19;20003;-75
2023/02/15 02:20:28;;;;;;;79.35;35.17;;;;;;;0.67;94.24;103040.22;6098555;19;20062;-74
2023/02/15 02:23:06;;;;;;;83.93;36.83;;;;;;;0.63;94.11;103031.47;6090226;19;20110;-75
2023/02/15 02:25:33;;;;;;;77.57;34.00;;;;;;;0.59;94.03;103037.34;6093175;19;20007;-75
2023/02/15 02:27:50;;;;;;;84.65;38.45;;;;;;;0.62;94.87;103031.41;6103917;19;20011;-75
2023/02/15 02:30:17;;;;;;;78.57;37.40;;;;;;;0.54;94.42;103032.84;6104265;19;20035;-75
2023/02/15 02:32:55;;;;;;;94.25;39.35;;;;;;;0.52;95.07;103029.31;6083113;19;20038;-74
2023/02/15 02:35:11;;;;;;;74.30;34.05;;;;;;;0.43;94.10;103025.56;6104198;19;20443;-75
2023/02/15 02:37:26;;;;;;;80.95;34.03;;;;;;;0.43;94.40;103017.81;6099025;19;20014;-74
2023/02/15 02:39:39;;;;;;;74.15;34.28;;;;;;;0.43;94.44;103019.53;6103116;19;20011;-74
2023/02/15 02:41:48;;;;;;;;;;;;;;;0.40;94.22;103020.28;6102757;19;20047;-75
2023/02/15 02:44:02;;;;;;;68.47;34.47;;;;;;;0.38;94.37;103005.53;6104465;19;19910;-75
2023/02/15 02:46:15;;;;;;;72.00;32.00;;;;;;;0.35;94.25;103008.03;6103003;19;20011;-74
2023/02/15 02:48:25;;;;;;;95.30;39.70;;;;;;;0.36;93.90;103007.19;6103700;19;20015;-74
2023/02/15 02:50:33;;;;;;;82.65;35.90;;;;;;;0.35;93.67;103003.72;6103729;19;20374;-75
2023/02/15 02:52:43;;;;;;;80.03;32.83;;;;;;;0.30;93.60;103000.09;6099447;19;20415;-74
2023/02/15 02:54:49;;;;;;;90.40;38.55;;;;;;;0.25;93.86;103004.22;6103403;19;20116;-74
2023/02/15 02:56:55;;;;;;;86.05;36.47;;;;;;;0.24;93.81;103001.56;6101237;19;20010;-74
2023/02/15 02:59:07;;;;;;;82.18;35.70;;;;;;;0.25;94.21;102998.16;6102541;19;21397;-75
2023/02/15 03:01:18;;;;;;;77.72;34.53;;;;;;;0.23;94.45;102998.09;6100304;19;20767;-74
2023/02/15 03:03:28;;;;;;;88.65;39.92;;;;;;;0.25;94.38;103001.63;6102688;19;20037;-73
2023/02/15 03:05:42;;;;;;;73.85;33.78;;;;;;;0.21;94.17;103003.22;6101407;19;20021;-73
2023/02/15 03:07:52;;;;;;;78.57;31.90;;;;;;;0.17;93.91;103000.47;6102641;19;20077;-74
2023/02/15 03:10:00;;;;;;;71.93;33.38;;;;;;;0.15;93.86;102996.94;6097655;19;20027;-75
2023/02/15 03:12:05;;;;;;;83.00;35.55;;;;;;;0.14;93.50;102990.91;6099483;19;20027;-74
2023/02/15 03:14:10;;;;;;;79.45;38.30;;;;;;;0.15;94.17;102994.34;6101291;19;20015;-75
2023/02/15 03:16:30;;;;;;;81.30;33.13;;;;;;;0.11;93.91;102987.31;6102000;19;20454;-74
2023/02/15 03:18:41;;;;;;;93.70;36.47;;;;;;;0.10;94.04;102983.84;6102487;19;20022;-74
2023/02/15 03:20:50;;;;;;;85.55;35.95;;;;;;;0.13;93.83;102977.91;6103438;19;20086;-75
2023/02/15 03:22:59;;;;;;;78.15;35.40;;;;;;;0.16;94.67;102972.88;6100791;19;20009;-75
2023/02/15 03:25:12;;;;;;;76.72;32.58;;;;;;;0.15;94.63;102977.13;6102723;19;20370;-75
2023/02/15 03:27:20;;;;;;;80.35;35.53;;;;;;;0.15;94.41;102969.38;6097918;19;20022;-73
2023/02/15 03:29:30;;;;;;;84.10;35.83;;;;;;;0.18;94.37;102971.19;6101067;19;20011;-73
2023/02/15 03:31:40;;;;;;;81.18;35.17;;;;;;;0.18;94.30;102968.59;6101613;19;20058;-74
2023/02/15 03:33:52;;;;;;;81.00;34.20;;;;;;;0.17;94.35;102969.44;6099985;19;20042;-74
2023/02/15 03:36:07;;;;;;;88.95;39.25;;;;;;;0.14;94.56;102970.22;6101101;19;20078;-74
2023/02/15 03:38:13;;;;;;;101.75;41.78;;;;;;;0.17;95.14;102972.03;6102036;19;20011;-75
2023/02/15 03:42:44;;;;;;;69.05;33.92;;;;;;;0.04;94.29;102967.22;6102360;19;20009;-75
2023/02/15 03:44:59;;;;;;;77.55;35.17;;;;;;;0.02;94.01;102968.88;6101380;19;20018;-73
2023/02/15 03:47:08;;;;;;;96.78;38.75;;;;;;;-0.01;94.51;102970.50;6102658;19;20123;-75
2023/02/15 03:49:20;;;;;;;88.43;35.83;;;;;;;-0.04;93.87;102970.41;6100659;19;20014;-74
2023/02/15 03:51:38;;;;;;;84.22;35.45;;;;;;;0.02;95.03;102963.69;6100228;19;20086;-73
2023/02/15 03:53:45;;;;;;;101.80;40.20;;;;;;;-0.03;94.76;102956.69;6098334;19;20007;-75
2023/02/15 03:55:50;;;;;;;73.97;32.22;;;;;;;-0.09;94.02;102951.25;6104162;19;20010;-74
2023/02/15 04:03:00;;;;;;;76.70;33.00;;;;;;;0.12;94.90;102948.59;6097039;19;20015;-73
2023/02/15 04:05:06;;;;;;;100.65;39.97;;;;;;;0.08;94.76;102944.16;6100164;19;20006;-75
2023/02/15 04:07:13;;;;;;;98.43;41.05;;;;;;;0.06;94.65;102935.44;6102144;19;20006;-72
2023/02/15 04:11:38;;;;;;;89.18;36.58;;;;;;;0.06;95.28;102932.88;6100900;19;20357;-74
2023/02/15 04:13:44;;;;;;;97.45;39.25;;;;;;;0.07;95.21;102926.84;6096221;19;20477;-75
2023/02/15 04:18:19;;;;;;;78.30;32.17;;;;;;;0.03;95.31;102934.44;6100615;19;20015;-75
2023/02/15 04:25:15;;;;;;;67.75;31.35;;;;;;;-0.07;95.08;102925.47;6097463;19;20010;-75
2023/02/15 04:27:20;;;;;;;77.18;32.75;;;;;;;-0.05;95.79;102927.31;6101847;19;20006;-74
2023/02/15 04:29:26;;;;;;;73.22;34.97;;;;;;;-0.06;95.61;102935.84;6100580;19;20110;-75
2023/02/15 04:31:31;;;;;;;84.60;33.92;;;;;;;-0.11;95.23;102927.06;6104014;19;20031;-75
2023/02/15 04:33:39;;;;;;;72.88;33.33;;;;;;;-0.10;95.59;102925.38;6100402;19;20018;-75
2023/02/15 04:35:47;;;;;;;93.97;39.25;;;;;;;-0.08;95.78;102934.03;6103648;19;20031;-74
2023/02/15 04:37:55;;;;;;;78.25;33.83;;;;;;;-0.12;95.57;102933.06;6100857;19;20011;-74
2023/02/15 04:39:58;;;;;;;91.55;35.53;;;;;;;-0.15;95.12;102927.78;6097265;19;20042;-75
2023/02/15 04:42:03;;;;;;;83.40;35.67;;;;;;;-0.11;95.77;102924.47;6098707;19;20353;-74
2023/02/15 04:44:08;;;;;;;75.70;33.75;;;;;;;-0.15;95.17;102924.31;6101275;19;20388;-74
2023/02/15 04:46:13;;;;;;;89.07;35.03;;;;;;;-0.13;95.25;102922.66;6103765;19;20027;-74
2023/02/15 04:48:18;;;;;;;87.63;36.65;;;;;;;-0.09;95.27;102922.81;6099690;19;20074;-73
2023/02/15 04:50:23;;;;;;;75.68;35.30;;;;;;;-0.08;95.40;102922.03;6093078;19;20571;-73
2023/02/15 04:52:29;;;;;;;79.20;33.22;;;;;;;-0.08;95.22;102919.44;6098683;19;20030;-74
2023/02/15 04:54:36;;;;;;;79.30;37.00;;;;;;;-0.04;95.47;102920.41;6102871;19;20021;-73
2023/02/15 04:56:42;;;;;;;97.82;40.80;;;;;;;0.03;96.37;102922.41;6100820;19;20015;-74
2023/02/15 04:58:49;;;;;;;82.45;35.72;;;;;;;-0.02;96.24;102917.06;6102998;19;20022;-73
2023/02/15 05:00:57;;;;;;;80.55;37.55;;;;;;;-0.08;96.07;102914.28;6102674;19;20019;-74
2023/02/15 05:03:02;;;;;;;93.75;38.33;;;;;;;-0.07;96.05;102912.56;6099824;19;20038;-73
2023/02/15 05:05:09;;;;;;;81.55;37.35;;;;;;;-0.02;96.39;102917.06;6098336;19;20003;-74
2023/02/15 05:07:14;;;;;;;90.00;36.67;;;;;;;-0.06;96.14;102919.47;6100470;19;20470;-74
2023/02/15 05:09:19;;;;;;;76.35;31.02;;;;;;;-0.08;95.80;102921.13;6099887;19;20002;-74
2023/02/15 05:11:27;;;;;;;93.75;40.75;;;;;;;0.01;95.77;102915.44;6092555;19;20081;-76
2023/02/15 05:13:33;;;;;;;94.35;37.25;;;;;;;0.01;95.75;102905.09;6100155;19;20018;-75
2023/02/15 05:15:40;;;;;;;80.85;35.72;;;;;;;-0.01;95.60;102903.31;6099844;19;20021;-74
2023/02/15 05:17:48;;;;;;;81.30;34.08;;;;;;;-0.03;95.64;102904.97;6097758;19;20101;-75
2023/02/15 05:19:53;;;;;;;84.22;37.78;;;;;;;-0.05;95.76;102898.00;6098160;19;20056;-74
2023/02/15 05:21:59;;;;;;;78.90;35.53;;;;;;;-0.07;95.91;102897.06;6099444;19;20017;-75
2023/02/15 05:28:19;;;;;;;89.63;38.42;;;;;;;-0.11;95.74;102896.03;6095542;19;20455;-74
2023/02/15 05:28:49;;;;;;;99.20;38.15;;;;;;;-0.17;95.42;102895.84;6099552;19;20015;-75
2023/02/15 05:31:05;;;;;;;111.30;43.00;;;;;;;-0.08;96.48;102896.19;6098085;19;20503;-75
2023/02/15 05:33:10;;;;;;;87.60;37.25;;;;;;;-0.20;95.42;102892.25;6095044;19;20007;-74
2023/02/15 05:35:16;;;;;;;111.95;40.20;;;;;;;-0.26;95.21;102885.19;6098302;19;20007;-73
2023/02/15 05:37:20;;;;;;;103.55;40.97;;;;;;;-0.30;95.31;102885.88;6100833;19;20018;-75
2023/02/15 05:39:25;;;;;;;95.70;39.13;;;;;;;-0.31;95.10;102881.53;6095890;19;20019;-73
2023/02/15 05:41:33;;;;;;;91.32;39.97;;;;;;;-0.34;94.99;102881.41;6100828;19;20455;-74
2023/02/15 05:43:39;;;;;;;84.05;35.80;;;;;;;-0.37;95.16;102882.19;6098029;19;20449;-73
2023/02/15 05:45:50;;;;;;;107.20;40.95;;;;;;;-0.36;95.62;102883.06;6097324;19;20019;-73
2023/02/15 05:47:55;;;;;;;86.22;35.83;;;;;;;-0.37;95.34;102881.28;6098970;19;20007;-74
2023/02/15 05:50:01;;;;;;;100.97;42.08;;;;;;;-0.39;95.84;102883.84;6100282;19;20020;-74
2023/02/15 05:52:06;;;;;;;89.53;39.13;;;;;;;-0.32;96.49;102879.75;6097742;19;20011;-73
2023/02/15 05:54:11;;;;;;;93.85;36.65;;;;;;;-0.39;96.21;102883.84;6097508;19;20125;-75
2023/02/15 05:56:16;;;;;;;105.60;41.13;;;;;;;-0.39;96.01;102882.97;6098467;19;20031;-76
2023/02/15 05:58:24;;;;;;;92.07;38.05;;;;;;;-0.39;95.93;102880.38;6099154;19;20137;-75
2023/02/15 06:00:29;;;;;;;100.28;40.67;;;;;;;-0.38;96.03;102877.84;6100614;19;20086;-75
2023/02/15 06:02:36;;;;;;;112.53;41.13;;;;;;;-0.32;96.23;102879.75;6104275;19;20016;-75
2023/02/15 06:04:41;;;;;;;110.35;45.95;;;;;;;-0.34;96.14;102871.97;6106542;19;20011;-74
2023/02/15 06:06:46;;;;;;;90.28;41.35;;;;;;;-0.32;96.38;102875.47;6105332;19;20469;-74
2023/02/15 06:08:51;;;;;;;118.57;41.45;;;;;;;-0.16;96.36;102874.31;6102980;19;20589;-75
2023/02/15 06:10:56;;;;;;;113.00;44.70;;;;;;;0.07;96.53;102874.28;6103372;19;20090;-76
2023/02/15 06:13:02;;;;;;;108.85;43.90;;;;;;;0.10;96.64;102870.09;6102034;19;20017;-76
2023/02/15 06:15:10;;;;;;;113.22;43.83;;;;;;;0.09;96.44;102870.06;6106028;19;20484;-73
2023/02/15 06:17:16;;;;;;;105.40;43.47;;;;;;;0.05;96.18;102870.75;6101467;19;20016;-74
2023/02/15 06:19:22;;;;;;;104.72;45.35;;;;;;;0.07;96.05;102871.69;6104348;19;20023;-74
2023/02/15 06:21:27;;;;;;;124.53;44.35;;;;;;;0.09;96.76;102875.22;6099224;19;20564;-73
2023/02/15 06:23:32;;;;;;;127.25;47.42;;;;;;;0.06;96.50;102885.47;6101785;19;20003;-74
2023/02/15 06:25:38;;;;;;;93.35;41.05;;;;;;;0.06;96.95;102888.91;6103894;19;20038;-73
2023/02/15 06:27:44;;;;;;;113.80;43.35;;;;;;;0.01;96.69;102876.66;6082859;19;20015;-75
2023/02/15 06:29:50;;;;;;;108.60;41.35;;;;;;;-0.07;96.11;102891.88;6100967;19;20109;-74
2023/02/15 06:31:57;;;;;;;108.00;42.15;;;;;;;-0.08;95.97;102874.59;6103680;19;20024;-74
2023/02/15 06:34:03;;;;;;;124.55;46.15;;;;;;;-0.08;96.06;102879.78;6101017;19;21303;-75
2023/02/15 06:36:08;;;;;;;123.75;46.60;;;;;;;-0.11;96.19;102882.25;6103481;19;20078;-74
2023/02/15 06:38:13;;;;;;;103.30;42.42;;;;;;;-0.11;96.50;102883.13;6107049;19;20014;-75
2023/02/15 06:40:18;;;;;;;116.85;41.38;;;;;;;-0.14;96.45;102880.44;6105927;19;20006;-74
2023/02/15 06:42:23;;;;;;;122.60;48.33;;;;;;;-0.12;96.62;102878.78;6106202;19;20430;-74
2023/02/15 06:44:29;;;;;;;96.43;38.85;;;;;;;-0.16;96.26;102874.31;6105377;19;20010;-74
2023/02/15 06:46:34;;;;;;;94.82;39.13;;;;;;;-0.20;96.04;102869.00;6105479;19;20023;-73
2023/02/15 06:48:42;;;;;;;106.60;41.05;;;;;;;-0.18;95.88;102869.97;6103053;19;20032;-73
2023/02/15 06:50:49;;;;;;;119.30;43.25;;;;;;;-0.11;96.31;102864.16;6100450;19;20977;-75
2023/02/15 06:52:58;;;;;;;97.30;37.85;;;;;;;-0.14;96.06;102870.09;6098559;19;20718;-74
2023/02/15 06:55:03;;;;;;;120.85;43.30;;;;;;;-0.09;96.38;102878.03;6102074;19;20014;-75
2023/02/15 06:57:09;;;;;;;106.72;39.78;;;;;;;-0.09;96.81;102872.84;6102925;19;20027;-74
2023/02/15 06:59:14;;;;;;;96.38;40.75;;;;;;;-0.14;96.44;102864.94;6102218;19;20475;-74
2023/02/15 07:01:19;;;;;;;123.60;43.83;;;;;;;-0.12;96.77;102876.22;6104124;19;20076;-74
2023/02/15 07:03:24;;;;;;;88.78;38.63;;;;;;;-0.13;96.73;102871.88;6101860;19;20654;-73
2023/02/15 07:05:35;;;;;;;112.28;42.13;;;;;;;-0.04;96.66;102866.16;6103635;19;20503;-74
2023/02/15 07:07:39;;;;;;;111.00;41.22;;;;;;;-0.01;96.67;102866.25;6097455;19;20015;-74
2023/02/15 07:09:44;;;;;;;118.65;44.88;;;;;;;0.07;96.70;102861.34;6103632;19;20017;-73
2023/02/15 07:14:10;;;;;;;123.85;46.80;;;;;;;0.15;96.69;102868.53;6105164;19;20011;-74
2023/02/15 07:16:15;;;;;;;139.13;47.90;;;;;;;0.22;96.88;102864.47;6103886;19;20687;-73
2023/02/15 07:18:20;;;;;;;133.93;45.85;;;;;;;0.28;96.48;102854.34;6104040;19;20011;-73
2023/02/15 07:20:26;;;;;;;123.55;45.35;;;;;;;0.31;96.30;102862.19;6101827;19;20018;-74
2023/02/15 07:22:36;;;;;;;107.38;40.38;;;;;;;0.29;96.19;102863.88;6102099;19;20625;-74
2023/02/15 07:24:41;;;;;;;119.72;45.45;;;;;;;0.24;96.32;102862.84;6101259;19;20018;-74
2023/02/15 07:26:45;;;;;;;113.97;45.30;;;;;;;0.20;96.04;102856.66;6102811;19;20003;-75
2023/02/15 07:28:51;;;;;;;100.47;40.10;;;;;;;0.20;96.23;102855.78;6100272;19;20260;-74
2023/02/15 07:30:57;;;;;;;103.60;39.85;;;;;;;0.19;96.00;102861.78;6103602;19;20007;-74
2023/02/15 07:35:19;;;;;;;94.70;39.28;;;;;;;0.25;96.20;102856.81;6103498;19;21549;-74
2023/02/15 07:37:24;;;;;;;117.05;45.05;;;;;;;0.33;96.43;102852.78;6104267;19;20014;-73
2023/02/15 07:39:32;;;;;;;107.03;42.72;;;;;;;0.46;96.50;102850.63;6101251;19;20368;-75
2023/02/15 07:41:38;;;;;;;104.70;42.78;;;;;;;0.61;96.34;102848.56;6099285;19;20666;-74
2023/02/15 07:43:46;;;;;;;125.78;44.70;;;;;;;0.70;96.18;102843.66;6102767;19;20015;-73
2023/02/15 07:45:51;;;;;;;105.25;43.25;;;;;;;0.79;96.62;102843.06;6101622;19;20032;-74
2023/02/15 07:47:58;;;;;;;119.15;47.03;;;;;;;0.80;96.17;102843.13;6104527;19;21382;-74
2023/02/15 07:50:03;;;;;;;106.57;43.45;;;;;;;0.86;96.53;102840.72;6104599;19;20014;-75
2023/02/15 07:52:09;;;;;;;115.68;45.92;;;;;;;0.97;96.21;102838.47;6101676;19;20820;-75
2023/02/15 07:54:14;;;;;;;120.88;46.53;;;;;;;1.08;96.70;102841.44;6100758;19;20011;-74
2023/02/15 07:56:22;;;;;;;115.22;46.00;;;;;;;1.15;96.48;102839.91;6101671;19;20070;-76
2023/02/15 07:58:50;;;;;;;106.35;44.33;;;;;;;1.25;96.49;102835.03;6101968;19;20043;-76
2023/02/15 08:01:03;;;;;;;116.80;46.95;;;;;;;1.35;96.28;102835.31;6080215;19;20014;-75
2023/02/15 08:03:17;;;;;;;92.63;40.35;;;;;;;1.40;96.39;102828.56;6096691;19;20007;-76
2023/02/15 08:05:22;;;;;;;112.45;44.53;;;;;;;1.44;96.29;102831.28;6100275;19;20962;-74
2023/02/15 08:07:27;;;;;;;105.43;43.78;;;;;;;1.51;96.11;102825.44;6098017;19;20042;-75
2023/02/15 08:09:32;;;;;;;107.68;44.25;;;;;;;1.59;95.83;102829.97;6097868;19;20014;-75
2023/02/15 08:11:42;;;;;;;96.72;42.00;;;;;;;1.62;95.94;102825.75;6101183;19;20018;-75
2023/02/15 08:13:53;;;;;;;99.03;42.92;;;;;;;1.64;95.86;102825.81;6097675;19;20002;-75
2023/02/15 08:15:58;;;;;;;86.70;41.22;;;;;;;1.68;96.12;102825.91;6101008;19;20086;-75
2023/02/15 08:18:03;;;;;;;104.22;44.50;;;;;;;1.68;95.89;102820.72;6093658;19;20039;-76
2023/02/15 08:20:10;;;;;;;93.93;40.97;;;;;;;1.72;95.71;102827.75;6095411;19;20017;-74
2023/02/15 08:22:16;;;;;;;95.63;40.60;;;;;;;1.80;95.87;102825.38;6105297;19;20017;-74
2023/02/15 08:24:23;;;;;;;102.50;43.05;;;;;;;1.86;95.79;102822.09;6099354;19;20511;-74
2023/02/15 08:26:29;;;;;;;81.72;40.83;;;;;;;1.91;95.76;102818.78;6103985;19;20471;-75
2023/02/15 08:28:40;;;;;;;82.78;39.42;;;;;;;1.99;95.83;102816.38;6099429;19;20017;-74
2023/02/15 08:30:45;;;;;;;82.43;38.72;;;;;;;2.05;95.54;102810.47;6099255;19;20581;-74
2023/02/15 08:32:50;;;;;;;87.38;39.28;;;;;;;2.12;95.60;102815.00;6095724;19;20401;-74
2023/02/15 08:34:55;;;;;;;97.53;42.47;;;;;;;2.16;95.53;102812.53;6099200;19;20377;-74
2023/02/15 08:37:00;;;;;;;84.22;38.47;;;;;;;2.19;95.32;102817.78;6095660;19;20709;-75
2023/02/15 08:39:09;;;;;;;81.07;38.80;;;;;;;2.23;95.49;102805.78;6099891;19;20014;-74
2023/02/15 08:41:16;;;;;;;93.50;42.60;;;;;;;2.32;95.42;102810.34;6101116;19;20014;-74
2023/02/15 08:43:22;;;;;;;91.70;41.53;;;;;;;2.46;95.41;102811.56;6101729;19;20042;-73
2023/02/15 08:45:29;;;;;;;85.32;40.83;;;;;;;2.54;95.02;102812.59;6102404;19;20091;-73
2023/02/15 08:47:36;;;;;;;93.25;41.90;;;;;;;2.61;95.35;102817.13;6100463;19;20010;-74
2023/02/15 08:49:41;;;;;;;86.65;39.45;;;;;;;2.64;95.00;102817.19;6099340;19;20015;-74
2023/02/15 08:51:47;;;;;;;88.40;40.50;;;;;;;2.71;94.77;102819.91;6102032;19;20006;-74
2023/02/15 08:53:54;;;;;;;96.75;42.60;;;;;;;2.77;94.67;102827.88;6097354;19;20021;-74
2023/02/15 08:55:59;;;;;;;107.95;47.17;;;;;;;2.86;94.25;102825.47;6100665;19;20089;-74
2023/02/15 08:58:06;;;;;;;100.65;45.72;;;;;;;2.91;94.10;102821.28;6098934;19;20011;-74
2023/02/15 09:00:13;;;;;;;103.32;45.40;;;;;;;2.96;94.26;102818.78;6100898;19;20417;-75
2023/02/15 09:02:21;;;;;;;96.72;46.63;;;;;;;3.11;94.12;102815.63;6100364;19;20320;-73
2023/02/15 09:04:26;;;;;;;81.53;41.10;;;;;;;3.12;94.10;102812.22;6096012;19;20018;-75
2023/02/15 09:06:31;;;;;;;88.80;44.05;;;;;;;3.26;94.03;102816.84;6096365;19;20022;-75
2023/02/15 09:08:37;;;;;;;99.68;47.00;;;;;;;3.34;93.69;102824.81;6098168;19;20025;-77
2023/02/15 09:10:42;;;;;;;95.90;46.55;;;;;;;3.48;93.55;102827.72;6096085;19;20094;-77
2023/02/15 09:12:49;;;;;;;111.72;50.00;;;;;;;3.59;92.90;102821.00;6096662;19;20479;-77
2023/02/15 09:14:53;;;;;;;108.47;47.95;;;;;;;3.70;92.15;102829.91;6093391;19;20082;-74
2023/02/15 09:16:58;;;;;;;99.03;47.88;;;;;;;3.79;92.01;102826.63;6099656;19;20019;-74
2023/02/15 09:19:07;;;;;;;121.35;54.88;;;;;;;3.99;91.53;102820.91;6102475;19;20025;-75
2023/02/15 09:21:15;;;;;;;111.38;51.28;;;;;;;4.10;91.21;102819.38;6081457;19;20035;-77
2023/02/15 09:23:20;;;;;;;109.85;49.35;;;;;;;4.21;90.79;102817.84;6101085;19;20010;-77
2023/02/15 09:25:31;;;;;;;114.50;49.33;;;;;;;4.33;90.96;102817.19;6097440;19;20011;-77
2023/02/15 09:27:36;;;;;;;117.07;49.53;;;;;;;4.48;90.13;102808.75;6098604;19;20543;-77
2023/02/15 09:29:42;;;;;;;112.10;51.97;;;;;;;4.62;89.49;102815.06;6099456;19;20020;-74
2023/02/15 09:31:49;;;;;;;107.13;50.63;;;;;;;4.68;88.99;102809.94;6098096;19;20010;-74
2023/02/15 09:33:55;;;;;;;104.13;48.35;;;;;;;4.76;88.89;102810.06;6101183;19;20877;-77
2023/02/15 09:36:03;;;;;;;107.50;49.95;;;;;;;4.88;87.76;102807.66;6103384;19;20837;-76
2023/02/15 09:38:09;;;;;;;102.47;51.22;;;;;;;5.06;87.14;102804.44;6106239;19;20011;-76
2023/02/15 09:40:18;;;;;;;114.10;46.70;;;;;;;5.18;86.07;102804.59;6105490;19;20017;-73
2023/02/15 09:42:38;;;;;;;87.90;44.92;;;;;;;5.39;87.53;102801.38;6106039;19;20077;-73
2023/02/15 09:45:03;;;;;;;89.47;44.88;;;;;;;5.54;86.27;102805.06;6103681;19;20476;-74
2023/02/15 09:47:46;;;;;;;85.28;43.00;;;;;;;5.79;86.33;102796.63;6100398;19;20074;-74
2023/02/15 09:50:06;;;;;;;101.97;45.47;;;;;;;5.84;85.29;102794.06;6101590;19;20019;-73
2023/02/15 09:52:34;;;;;;;89.45;43.05;;;;;;;6.02;84.01;102793.41;6102380;19;20017;-76
2023/02/15 09:54:55;;;;;;;87.53;42.38;;;;;;;6.09;84.04;102790.88;6104211;19;20497;-76
2023/02/15 09:57:08;;;;;;;85.75;40.80;;;;;;;6.13;83.09;102787.47;6103740;19;20662;-77
2023/02/15 09:59:22;;;;;;;82.03;39.85;;;;;;;6.18;83.10;102797.06;6107774;19;20520;-77
2023/02/15 10:01:37;;;;;;;80.15;38.28;;;;;;;6.18;82.78;102795.31;6101610;19;20389;-75
2023/02/15 10:03:57;;;;;;;78.93;39.72;;;;;;;6.26;81.76;102798.88;6106572;19;20037;-75
2023/02/15 10:06:26;;;;;;;85.60;39.17;;;;;;;6.39;82.15;102794.63;6100214;19;20019;-75
2023/02/15 10:09:00;;;;;;;80.13;38.13;;;;;;;6.51;81.57;102799.97;6105002;19;20010;-74